createdAt,value
2022-11-30T00:04:33.412Z,0
2022-11-30T00:10:25.102Z,0
2022-11-30T00:15:40.662Z,0
2022-11-30T00:21:07.958Z,0
2022-11-30T00:26:42.245Z,0
2022-11-30T00:32:17.665Z,0
2022-11-30T00:37:54.048Z,2.4
2022-11-30T00:43:12.823Z,0
2022-11-30T00:48:52.994Z,0
2022-11-30T00:54:33.020Z,0
2022-11-30T01:00:03.629Z,0
2022-11-30T01:05:45.980Z,2.4
2022-11-30T01:10:53.752Z,3.6
2022-11-30T01:16:28.429Z,3.6
2022-11-30T01:22:02.694Z,3.6
2022-11-30T01:27:29.652Z,2.4
2022-11-30T01:33:00.641Z,3.6
2022-11-30T01:38:55.207Z,4.8
2022-11-30T01:44:13.425Z,2.4
2022-11-30T01:49:53.063Z,0
2022-11-30T01:55:14.785Z,0
2022-11-30T02:01:07.190Z,0
2022-11-30T02:06:26.573Z,0
2022-11-30T02:12:13.579Z,0
2022-11-30T02:17:32.568Z,0
2022-11-30T02:23:03.684Z,0
2022-11-30T02:28:27.029Z,2.4
2022-11-30T02:34:03.342Z,2.4
2022-11-30T02:39:36.703Z,0
2022-11-30T02:45:08.384Z,0
2022-11-30T02:51:48.179Z,2.4
2022-11-30T02:56:07.939Z,0
2022-11-30T03:01:37.999Z,0
2022-11-30T03:07:16.523Z,2.4
2022-11-30T03:13:04.170Z,0
2022-11-30T03:18:17.804Z,2.4
2022-11-30T03:23:55.682Z,0
2022-11-30T03:29:20.286Z,2.4
2022-11-30T03:34:56.555Z,2.4
2022-11-30T03:40:42.854Z,0
2022-11-30T03:46:03.461Z,0
2022-11-30T03:51:41.931Z,3.6
2022-11-30T03:57:18.032Z,2.4
2022-11-30T04:02:44.604Z,3.6
2022-11-30T04:08:17.357Z,0
2022-11-30T04:13:36.607Z,0
2022-11-30T04:19:33.801Z,0
2022-11-30T04:24:56.462Z,0
2022-11-30T04:30:31.824Z,0
2022-11-30T04:35:53.270Z,0
2022-11-30T04:41:24.426Z,0
2022-11-30T04:47:06.649Z,0
2022-11-30T04:52:33.909Z,0
2022-11-30T04:58:17.551Z,0
2022-11-30T05:03:30.301Z,0
2022-11-30T05:09:15.834Z,0
2022-11-30T05:14:55.085Z,0
2022-11-30T05:20:06.022Z,0
2022-11-30T05:25:35.579Z,0
2022-11-30T05:31:06.628Z,0
2022-11-30T05:36:40.720Z,0
2022-11-30T05:42:11.013Z,0
2022-11-30T05:47:51.596Z,0
2022-11-30T05:53:16.209Z,0
2022-11-30T05:58:48.716Z,0
2022-11-30T06:04:30.517Z,0
2022-11-30T06:09:59.070Z,0
2022-11-30T06:15:34.511Z,0
2022-11-30T06:21:07.889Z,0
2022-11-30T06:26:26.368Z,0
2022-11-30T06:32:01.559Z,0
2022-11-30T06:37:48.491Z,0
2022-11-30T06:43:23.223Z,0
2022-11-30T06:48:31.814Z,0
2022-11-30T06:54:27.156Z,0
2022-11-30T06:59:56.783Z,0
2022-11-30T07:05:24.910Z,0
2022-11-30T07:10:37.292Z,0
2022-11-30T07:16:28.895Z,0
2022-11-30T07:21:44.725Z,0
2022-11-30T07:27:40.102Z,0
2022-11-30T07:33:09.342Z,0
2022-11-30T07:38:43.002Z,0
2022-11-30T07:43:58.999Z,0
2022-11-30T07:49:45.551Z,0
2022-11-30T07:55:05.757Z,0
2022-11-30T08:00:53.042Z,0
2022-11-30T08:06:24.488Z,0
2022-11-30T08:11:52.964Z,0
2022-11-30T08:17:22.080Z,0
2022-11-30T08:22:59.187Z,0
2022-11-30T08:28:31.203Z,0
2022-11-30T08:33:59.857Z,0
2022-11-30T08:39:38.900Z,2.4
2022-11-30T08:45:11.878Z,2.4
2022-11-30T08:50:20.938Z,2.4
2022-11-30T08:56:12.905Z,0
2022-11-30T09:01:41.282Z,0
2022-11-30T09:07:05.921Z,2.4
2022-11-30T09:12:44.770Z,4.8
2022-11-30T09:18:09.072Z,0
2022-11-30T09:23:29.493Z,0
2022-11-30T09:29:12.236Z,3.6
2022-11-30T09:34:56.847Z,4.8
2022-11-30T09:40:35.444Z,4.8
2022-11-30T09:45:59.084Z,3.6
2022-11-30T09:51:16.656Z,4.8
2022-11-30T09:57:11.589Z,4.8
2022-11-30T10:02:45.241Z,7.2
2022-11-30T10:08:05.677Z,5.9
2022-11-30T10:13:46.617Z,5.9
2022-11-30T10:19:20.590Z,8.4
2022-11-30T10:24:32.608Z,9.6
2022-11-30T10:30:09.655Z,9.6
2022-11-30T10:35:38.617Z,5.9
2022-11-30T10:41:26.436Z,8.4
2022-11-30T10:46:57.953Z,8.4
2022-11-30T10:52:47.238Z,5.9
2022-11-30T10:57:55.497Z,5.9
2022-11-30T11:03:34.270Z,4.8
2022-11-30T11:09:00.053Z,5.9
2022-11-30T11:14:38.067Z,7.2
2022-11-30T11:20:13.339Z,8.4
2022-11-30T11:26:00.199Z,5.9
2022-11-30T11:31:30.374Z,5.9
2022-11-30T11:36:43.542Z,8.4
2022-11-30T11:42:43.717Z,7.2
2022-11-30T11:48:08.308Z,9.6
2022-11-30T11:53:46.212Z,8.4
2022-11-30T11:59:05.837Z,7.2
2022-11-30T12:04:41.619Z,5.9
2022-11-30T12:10:49.744Z,7.2
2022-11-30T12:15:38.046Z,9.6
2022-11-30T12:21:22.074Z,7.2
2022-11-30T12:26:56.111Z,4.8
2022-11-30T12:32:14.768Z,7.2
2022-11-30T12:37:50.403Z,7.2
2022-11-30T12:43:26.817Z,5.9
2022-11-30T12:48:53.217Z,8.4
2022-11-30T12:54:27.486Z,8.4
2022-11-30T13:00:19.857Z,7.2
2022-11-30T13:05:45.220Z,10.7
2022-11-30T13:11:28.193Z,8.4
2022-11-30T13:16:55.060Z,9.6
2022-11-30T13:22:12.595Z,9.6
2022-11-30T13:28:11.403Z,9.6
2022-11-30T13:33:41.420Z,10.7
2022-11-30T13:38:55.449Z,9.6
2022-11-30T13:44:39.287Z,10.7
2022-11-30T13:50:25.409Z,10.7
2022-11-30T13:55:40.906Z,11.9
2022-11-30T14:01:15.007Z,10.7
2022-11-30T14:06:57.701Z,10.7
2022-11-30T14:12:22.024Z,9.6
2022-11-30T14:17:51.126Z,9.6
2022-11-30T14:23:28.225Z,8.4
2022-11-30T14:28:54.711Z,7.2
2022-11-30T14:34:32.142Z,4.8
2022-11-30T14:40:18.516Z,4.8
2022-11-30T14:45:42.185Z,5.9
2022-11-30T14:51:19.583Z,5.9
2022-11-30T14:56:48.098Z,9.6
2022-11-30T15:02:33.600Z,8.4
2022-11-30T15:07:44.593Z,5.9
2022-11-30T15:19:10.872Z,9.6
2022-11-30T15:24:28.397Z,8.4
2022-11-30T15:30:13.844Z,9.6
2022-11-30T15:36:12.386Z,9.6
2022-11-30T15:41:07.122Z,9.6
2022-11-30T15:46:46.590Z,5.9
2022-11-30T15:52:28.028Z,7.2
2022-11-30T15:57:48.464Z,5.9
2022-11-30T16:03:23.063Z,3.6
2022-11-30T16:08:44.259Z,3.6
2022-11-30T16:14:28.328Z,3.6
2022-11-30T16:20:05.473Z,2.4
2022-11-30T16:25:34.878Z,3.6
2022-11-30T16:31:18.032Z,2.4
2022-11-30T16:36:44.140Z,0
2022-11-30T16:41:56.522Z,0
2022-11-30T16:47:30.492Z,0
2022-11-30T16:53:06.599Z,3.6
2022-11-30T16:58:46.930Z,2.4
2022-11-30T17:04:30.780Z,0
2022-11-30T17:09:53.288Z,2.4
2022-11-30T17:15:20.643Z,2.4
2022-11-30T17:21:01.921Z,3.6
2022-11-30T17:26:11.297Z,2.4
2022-11-30T17:31:49.881Z,3.6
2022-11-30T17:37:28.764Z,7.2
2022-11-30T17:42:57.880Z,4.8
2022-11-30T17:48:23.114Z,5.9
2022-11-30T17:54:19.165Z,9.6
2022-11-30T17:59:46.473Z,8.4
2022-11-30T18:05:08.050Z,9.6
2022-11-30T18:10:57.296Z,8.4
2022-11-30T18:16:17.994Z,9.6
2022-11-30T18:22:00.378Z,8.4
2022-11-30T18:27:33.324Z,10.7
2022-11-30T18:32:49.588Z,11.9
2022-11-30T18:38:38.791Z,11.9
2022-11-30T18:43:50.815Z,11.9
2022-11-30T18:49:27.347Z,11.9
2022-11-30T18:55:14.775Z,10.7
2022-11-30T19:00:42.937Z,13.2
2022-11-30T19:06:20.153Z,11.9
2022-11-30T19:11:36.876Z,11.9
2022-11-30T19:17:19.472Z,10.7
2022-11-30T19:22:52.056Z,13.2
2022-11-30T19:28:34.280Z,11.9
2022-11-30T19:33:45.342Z,14.4
2022-11-30T19:39:16.855Z,10.7
2022-11-30T19:45:07.055Z,11.9
2022-11-30T19:50:37.860Z,10.7
2022-11-30T19:56:10.174Z,11.9
2022-11-30T20:01:30.179Z,11.9
2022-11-30T20:07:12.491Z,13.2
2022-11-30T20:12:37.654Z,11.9
2022-11-30T20:18:17.805Z,9.6
2022-11-30T20:24:02.004Z,11.9
2022-11-30T20:29:34.120Z,10.7
2022-11-30T20:35:04.111Z,11.9
2022-11-30T20:40:22.224Z,10.7
2022-11-30T20:46:13.673Z,10.7
2022-11-30T20:51:42.332Z,10.7
2022-11-30T20:57:17.944Z,9.6
2022-11-30T21:02:37.643Z,10.7
2022-11-30T21:08:18.367Z,10.7
2022-11-30T21:13:39.494Z,11.9
2022-11-30T21:19:12.706Z,11.9
2022-11-30T21:25:08.174Z,11.9
2022-11-30T21:30:29.847Z,11.9
2022-11-30T21:35:59.128Z,11.9
2022-11-30T21:41:44.044Z,13.2
2022-11-30T21:46:56.563Z,11.9
2022-11-30T21:52:33.167Z,10.7
2022-11-30T21:58:16.473Z,10.7
2022-11-30T22:03:43.306Z,13.2
2022-11-30T22:09:05.920Z,10.7
2022-11-30T22:14:38.637Z,9.6
2022-11-30T22:20:32.575Z,7.2
2022-11-30T22:25:54.224Z,5.9
2022-11-30T22:31:14.066Z,5.9
2022-11-30T22:36:55.431Z,8.4
2022-11-30T22:42:26.511Z,5.9
2022-11-30T22:48:08.863Z,7.2
2022-11-30T22:53:24.361Z,7.2
2022-11-30T22:59:07.710Z,4.8
2022-11-30T23:04:41.775Z,4.8
2022-11-30T23:10:19.013Z,5.9
2022-11-30T23:15:59.437Z,5.9
2022-11-30T23:21:15.320Z,8.4
2022-11-30T23:26:47.860Z,5.9
2022-11-30T23:32:35.068Z,4.8
2022-11-30T23:38:10.673Z,4.8
2022-11-30T23:43:49.238Z,5.9
2022-11-30T23:48:54.235Z,5.9
2022-11-30T23:54:27.997Z,7.2
